Time;durP1;ratioP1;P1;durP2;ratioP2;P2;SDS_P1;SDS_P2;PMS_P1;PMS_P2;Temp;Humidity;BMP_temperature;BMP_pressure;BME280_temperature;BME280_humidity;BME280_pressure;Samples;Min_cycle;Max_cycle;Signal;HPM_P1;HPM_P2
2023/08/06 00:01:03;;;;;;;;;10.00;9.00;;;;;23.57;54.66;100009.86;110206;1249;23190;-40
2023/08/06 00:03:47;;;;;;;;;10.67;10.67;;;;;23.56;54.70;100003.93;110234;1251;20845;-39
2023/08/06 00:06:13;;;;;;;;;9.00;7.00;;;;;23.53;54.63;99997.67;110308;1251;20565;-40
2023/08/06 00:08:39;;;;;;;;;9.00;9.00;;;;;23.55;54.67;99995.48;110277;1265;18342;-41
2023/08/06 00:11:05;;;;;;;;;8.50;8.00;;;;;23.59;54.68;99986.88;110270;1251;19896;-41
2023/08/06 00:13:31;;;;;;;;;9.50;9.50;;;;;23.58;54.76;99977.54;110281;1265;19069;-41
2023/08/06 00:15:57;;;;;;;;;7.00;7.00;;;;;23.58;54.79;99970.59;110269;1265;18125;-42
2023/08/06 00:18:23;;;;;;;;;10.00;7.00;;;;;23.58;54.86;99972.17;110269;1251;19741;-40
2023/08/06 00:20:49;;;;;;;;;11.00;11.00;;;;;23.54;55.06;99968.32;110244;1250;20498;-40
2023/08/06 00:23:15;;;;;;;;;10.00;9.00;;;;;23.54;54.90;99966.67;110163;1250;19917;-40
2023/08/06 00:25:41;;;;;;;;;10.00;10.00;;;;;23.50;55.38;99962.88;110246;1257;20061;-40
2023/08/06 00:28:07;;;;;;;;;13.00;10.00;;;;;23.52;55.29;99959.01;110286;1251;21698;-40
2023/08/06 00:30:33;;;;;;;;;12.00;10.00;;;;;23.54;55.32;99952.73;110268;1250;19626;-41
2023/08/06 00:32:58;;;;;;;;;10.00;10.00;;;;;23.55;55.10;99943.42;110250;1249;18479;-40
2023/08/06 00:35:24;;;;;;;;;11.00;11.00;;;;;23.52;55.31;99933.14;110292;1251;20532;-40
2023/08/06 00:37:50;;;;;;;;;13.00;13.00;;;;;23.51;55.40;99923.15;110272;1250;19786;-40
2023/08/06 00:40:16;;;;;;;;;9.50;9.50;;;;;23.52;55.37;99912.30;110294;1250;19896;-41
2023/08/06 00:42:44;;;;;;;;;10.00;10.00;;;;;23.51;55.57;99910.36;110307;1265;19127;-41
2023/08/06 00:45:10;;;;;;;;;10.00;10.00;;;;;23.50;55.47;99906.63;110259;1250;19537;-40
2023/08/06 00:47:39;;;;;;;;;10.50;10.50;;;;;23.50;55.71;99900.93;110247;1250;23013;-40
2023/08/06 00:50:05;;;;;;;;;9.00;9.00;;;;;23.52;55.47;99897.06;110279;1265;21035;-40
2023/08/06 00:52:31;;;;;;;;;10.00;9.00;;;;;23.49;55.75;99897.61;110308;1265;19860;-40
2023/08/06 00:54:57;;;;;;;;;11.00;10.00;;;;;23.48;55.69;99894.52;110257;1265;22037;-39
2023/08/06 00:57:23;;;;;;;;;10.00;10.00;;;;;23.47;55.76;99871.52;110277;1257;22265;-41
2023/08/06 00:59:48;;;;;;;;;12.00;11.00;;;;;23.48;55.86;99865.66;110286;1265;18331;-39
2023/08/06 01:02:15;;;;;;;;;13.00;13.00;;;;;23.47;55.96;99872.89;110273;1251;19844;-41
2023/08/06 01:04:40;;;;;;;;;9.00;9.00;;;;;23.46;55.74;99866.42;110283;1265;19443;-41
2023/08/06 01:07:06;;;;;;;;;14.00;11.00;;;;;23.44;56.08;99859.23;110292;1251;22351;-40
2023/08/06 01:09:32;;;;;;;;;11.00;10.00;;;;;23.44;55.88;99853.45;110273;1257;23394;-41
2023/08/06 01:11:58;;;;;;;;;10.00;10.00;;;;;23.43;56.06;99846.05;110301;1265;19727;-40
2023/08/06 01:14:24;;;;;;;;;13.00;11.00;;;;;23.46;56.08;99845.33;110161;1251;19780;-40
2023/08/06 01:16:50;;;;;;;;;14.00;13.00;;;;;23.44;56.03;99835.02;110346;1251;20002;-39
2023/08/06 01:19:16;;;;;;;;;13.00;12.00;;;;;23.46;55.84;99821.38;110291;1265;19121;-41
2023/08/06 01:21:42;;;;;;;;;15.00;11.00;;;;;23.43;55.67;99811.16;110278;1250;22723;-40
2023/08/06 01:24:08;;;;;;;;;10.00;10.00;;;;;23.43;55.58;99795.70;110252;1251;19850;-40
2023/08/06 01:26:34;;;;;;;;;10.00;10.00;;;;;23.44;55.69;99787.25;110274;1265;19541;-40
2023/08/06 01:29:00;;;;;;;;;13.00;13.00;;;;;23.42;55.74;99777.78;110263;1260;19774;-40
2023/08/06 01:31:26;;;;;;;;;14.00;13.00;;;;;23.42;55.71;99760.19;110284;1265;22923;-40
2023/08/06 01:33:52;;;;;;;;;10.00;10.00;;;;;23.43;55.67;99747.05;110266;1250;23073;-40
2023/08/06 01:36:18;;;;;;;;;11.00;10.00;;;;;23.44;55.78;99735.28;110286;1250;22072;-39
2023/08/06 01:38:44;;;;;;;;;11.00;11.00;;;;;23.40;55.57;99715.80;110269;1265;20067;-40
2023/08/06 01:41:10;;;;;;;;;12.00;12.00;;;;;23.41;55.76;99696.94;110302;1250;20503;-40
2023/08/06 01:43:36;;;;;;;;;11.50;10.00;;;;;23.39;55.63;99679.44;110276;1265;18541;-40
2023/08/06 01:46:01;;;;;;;;;10.00;10.00;;;;;23.37;55.65;99647.86;110283;1249;18503;-40
2023/08/06 01:48:27;;;;;;;;;9.00;9.00;;;;;23.34;55.84;99625.14;110232;1251;20639;-41
2023/08/06 01:50:53;;;;;;;;;13.00;10.00;;;;;23.34;55.81;99602.89;110246;1265;18329;-40
2023/08/06 01:53:19;;;;;;;;;10.00;10.00;;;;;23.31;55.93;99588.23;110277;1250;19921;-40
2023/08/06 01:55:45;;;;;;;;;10.00;10.00;;;;;23.31;55.91;99581.50;110160;1251;20791;-40
2023/08/06 01:58:11;;;;;;;;;9.00;9.00;;;;;23.28;55.73;99591.58;110348;1251;22319;-40
2023/08/06 02:00:37;;;;;;;;;10.00;10.00;;;;;23.30;55.91;99624.98;110303;1257;19905;-40
2023/08/06 02:03:03;;;;;;;;;10.00;9.00;;;;;23.31;55.97;99656.48;110273;1265;19477;-41
2023/08/06 02:05:29;;;;;;;;;10.00;10.00;;;;;23.30;56.07;99674.44;110297;1250;22956;-39
2023/08/06 02:07:55;;;;;;;;;;;;;;;23.27;55.98;99679.15;110284;1250;22421;-39
2023/08/06 02:10:21;;;;;;;;;11.00;11.00;;;;;23.30;56.05;99675.08;110279;1251;22398;-40
2023/08/06 02:12:47;;;;;;;;;11.00;11.00;;;;;23.33;55.69;99665.29;110263;1249;18992;-40
2023/08/06 02:15:13;;;;;;;;;10.00;9.50;;;;;23.33;55.85;99667.64;110310;1265;18666;-40
2023/08/06 02:17:39;;;;;;;;;10.50;9.50;;;;;23.31;56.00;99675.15;110278;1265;19277;-40
2023/08/06 02:20:05;;;;;;;;;9.00;9.00;;;;;23.34;55.77;99679.31;110281;1251;19707;-40
2023/08/06 02:22:31;;;;;;;;;10.00;9.50;;;;;23.34;55.94;99670.05;110308;1250;19840;-40
2023/08/06 02:24:56;;;;;;;;;9.00;8.00;;;;;23.33;56.05;99659.64;110279;1265;19137;-40
2023/08/06 02:27:22;;;;;;;;;10.50;9.50;;;;;23.35;55.91;99648.00;110290;1265;20155;-41
2023/08/06 02:29:48;;;;;;;;;10.00;10.00;;;;;23.34;55.95;99643.41;110308;1250;19961;-40
2023/08/06 02:32:14;;;;;;;;;11.00;10.00;;;;;23.31;56.24;99648.78;110306;1265;19096;-40
2023/08/06 02:34:40;;;;;;;;;10.00;9.00;;;;;23.27;56.28;99648.64;110306;1265;18302;-41
2023/08/06 02:37:06;;;;;;;;;9.00;9.00;;;;;23.29;56.28;99658.48;110286;1265;18450;-41
2023/08/06 02:39:33;;;;;;;;;9.00;9.00;;;;;23.29;56.46;99653.70;110296;1250;20532;-41
2023/08/06 02:41:59;;;;;;;;;9.00;9.00;;;;;23.29;56.41;99652.70;110288;1265;22117;-41
2023/08/06 02:44:25;;;;;;;;;10.00;9.00;;;;;23.30;56.29;99646.11;110306;1251;19920;-41
2023/08/06 02:46:51;;;;;;;;;10.00;9.00;;;;;23.32;56.33;99629.35;110292;1251;21884;-41
2023/08/06 02:49:17;;;;;;;;;9.00;9.00;;;;;23.31;56.28;99617.35;110275;1265;21917;-41
2023/08/06 02:51:43;;;;;;;;;8.00;8.00;;;;;23.33;56.39;99617.07;110296;1249;20982;-40
2023/08/06 02:54:09;;;;;;;;;7.50;7.50;;;;;23.32;56.32;99634.36;110302;1251;21793;-39
2023/08/06 02:56:35;;;;;;;;;10.00;9.00;;;;;23.32;56.42;99644.27;110287;1265;22898;-41
2023/08/06 02:59:01;;;;;;;;;10.00;9.00;;;;;23.32;56.43;99638.02;110285;1251;19821;-39
2023/08/06 03:01:28;;;;;;;;;11.00;10.00;;;;;23.35;56.17;99635.77;110306;1249;20572;-40
2023/08/06 03:03:54;;;;;;;;;9.50;9.00;;;;;23.36;56.18;99626.18;110273;1250;22197;-40
2023/08/06 03:06:20;;;;;;;;;9.50;9.00;;;;;23.34;56.31;99616.44;110324;1265;19792;-41
2023/08/06 03:08:46;;;;;;;;;9.00;9.00;;;;;23.34;56.34;99608.97;110277;1250;19058;-40
2023/08/06 03:11:12;;;;;;;;;9.00;9.00;;;;;23.35;56.40;99605.54;110282;1265;18228;-41
2023/08/06 03:13:38;;;;;;;;;9.00;9.00;;;;;23.34;56.25;99608.14;110262;1265;18410;-43
2023/08/06 03:16:04;;;;;;;;;9.50;9.50;;;;;23.33;56.44;99606.68;110282;1265;20648;-40
2023/08/06 03:18:30;;;;;;;;;11.00;10.00;;;;;23.37;56.08;99596.32;110244;1251;19348;-40
2023/08/06 03:20:56;;;;;;;;;10.50;9.50;;;;;23.38;56.38;99592.02;110282;1250;20229;-40
2023/08/06 03:23:22;;;;;;;;;10.00;9.00;;;;;23.34;56.50;99586.57;110268;1265;20889;-40
2023/08/06 03:25:48;;;;;;;;;9.00;9.00;;;;;23.34;56.52;99578.63;110268;1250;20850;-40
2023/08/06 03:28:14;;;;;;;;;;;;;;;23.32;56.31;99580.23;110293;1251;22711;-40
2023/08/06 03:30:40;;;;;;;;;7.00;7.00;;;;;23.33;56.47;99575.83;110296;1265;19268;-41
2023/08/06 03:33:06;;;;;;;;;8.00;8.00;;;;;23.33;56.17;99566.53;110247;1249;18972;-40
2023/08/06 03:35:32;;;;;;;;;6.00;6.00;;;;;23.34;56.57;99564.00;110277;1251;19712;-43
2023/08/06 03:37:58;;;;;;;;;9.00;9.00;;;;;23.34;56.44;99558.86;110287;1250;20488;-42
2023/08/06 03:40:24;;;;;;;;;7.00;7.00;;;;;23.35;56.18;99547.35;110300;1265;20204;-40
2023/08/06 03:42:50;;;;;;;;;6.00;6.00;;;;;23.36;56.26;99543.42;110276;1257;22715;-40
2023/08/06 03:45:16;;;;;;;;;7.00;7.00;;;;;23.35;56.31;99526.84;110266;1251;21756;-40
2023/08/06 03:47:42;;;;;;;;;8.00;8.00;;;;;23.36;56.28;99503.86;110256;1265;18482;-41
2023/08/06 03:50:08;;;;;;;;;7.50;7.50;;;;;23.37;56.22;99479.56;110210;1250;21158;-40
2023/08/06 03:52:33;;;;;;;;;7.00;6.00;;;;;23.32;56.60;99447.75;110301;1251;23030;-41
2023/08/06 03:54:59;;;;;;;;;6.00;6.00;;;;;23.32;56.59;99422.23;110291;1251;19853;-40
2023/08/06 03:57:25;;;;;;;;;6.00;5.00;;;;;23.33;56.20;99394.77;110269;1249;22652;-41
2023/08/06 03:59:51;;;;;;;;;7.00;7.00;;;;;23.31;56.50;99364.66;110262;1265;19127;-41
2023/08/06 04:02:17;;;;;;;;;7.00;6.00;;;;;23.29;56.57;99349.42;110264;1257;20988;-41
2023/08/06 04:04:43;;;;;;;;;6.00;6.00;;;;;23.28;56.81;99340.33;110289;1251;19786;-41
2023/08/06 04:07:09;;;;;;;;;6.00;6.00;;;;;23.25;56.56;99354.34;110284;1265;19089;-42
2023/08/06 04:09:36;;;;;;;;;7.00;7.00;;;;;23.26;56.65;99374.91;110336;1265;22859;-39
2023/08/06 04:12:04;;;;;;;;;6.00;6.00;;;;;23.26;56.62;99363.02;110269;1250;22674;-39
2023/08/06 04:14:30;;;;;;;;;6.00;5.00;;;;;23.24;56.70;99356.39;110263;1266;20733;-39
2023/08/06 04:16:56;;;;;;;;;7.00;7.00;;;;;23.27;56.72;99379.47;110271;1265;19319;-40
2023/08/06 04:19:22;;;;;;;;;6.50;6.00;;;;;23.27;56.75;99399.08;110302;1251;19794;-40
2023/08/06 04:21:48;;;;;;;;;7.00;7.00;;;;;23.24;56.97;99392.45;110318;1249;20383;-40
2023/08/06 04:24:14;;;;;;;;;7.00;7.00;;;;;23.27;56.96;99396.38;110324;1257;19325;-39
2023/08/06 04:26:40;;;;;;;;;6.00;6.00;;;;;23.30;56.75;99404.58;110259;1251;19829;-39
2023/08/06 04:29:06;;;;;;;;;5.00;5.00;;;;;23.31;56.63;99405.35;110326;1251;20715;-40
2023/08/06 04:31:31;;;;;;;;;7.00;6.00;;;;;23.30;56.63;99405.61;110277;1250;18219;-40
2023/08/06 04:33:57;;;;;;;;;6.00;6.00;;;;;23.31;56.59;99386.45;110256;1251;19904;-40
2023/08/06 04:36:23;;;;;;;;;7.50;7.50;;;;;23.31;56.89;99384.16;110276;1251;21708;-40
2023/08/06 04:38:49;;;;;;;;;6.00;6.00;;;;;23.30;56.95;99396.45;110297;1249;19547;-40
2023/08/06 04:41:15;;;;;;;;;6.00;6.00;;;;;23.30;56.96;99393.87;110343;1257;18349;-41
2023/08/06 04:43:41;;;;;;;;;7.00;7.00;;;;;23.33;56.74;99389.96;110312;1251;20715;-40
2023/08/06 04:46:07;;;;;;;;;6.00;6.00;;;;;23.33;56.55;99390.35;110320;1251;19378;-40
2023/08/06 04:48:33;;;;;;;;;6.00;6.00;;;;;23.34;56.70;99396.87;110302;1251;18297;-39
2023/08/06 04:50:59;;;;;;;;;8.50;7.00;;;;;23.29;56.90;99394.00;110297;1251;20536;-41
2023/08/06 04:53:25;;;;;;;;;6.00;6.00;;;;;23.31;56.74;99386.13;110274;1249;19414;-38
2023/08/06 04:55:51;;;;;;;;;10.00;9.00;;;;;23.31;56.90;99387.99;110306;1265;19959;-38
2023/08/06 04:58:17;;;;;;;;;7.00;6.00;;;;;23.31;57.03;99389.23;110295;1265;21691;-40
2023/08/06 05:00:43;;;;;;;;;6.50;6.00;;;;;23.31;57.00;99389.38;110291;1265;18312;-41
2023/08/06 05:03:09;;;;;;;;;7.00;6.00;;;;;23.29;56.93;99393.98;110284;1265;18357;-40
2023/08/06 05:05:35;;;;;;;;;5.00;5.00;;;;;23.32;56.92;99388.95;110272;1251;20725;-41
2023/08/06 05:08:00;;;;;;;;;6.00;6.00;;;;;23.32;56.96;99373.98;110296;1265;22296;-41
2023/08/06 05:10:26;;;;;;;;;5.50;5.50;;;;;23.32;57.06;99368.29;110316;1251;19962;-40
2023/08/06 05:12:52;;;;;;;;;6.00;6.00;;;;;23.32;57.08;99365.08;110271;1251;20717;-39
2023/08/06 05:15:18;;;;;;;;;7.00;6.00;;;;;23.34;56.93;99359.64;110296;1250;18169;-39
2023/08/06 05:17:44;;;;;;;;;10.00;9.00;;;;;23.35;56.86;99352.41;110299;1250;22194;-40
2023/08/06 05:20:10;;;;;;;;;9.50;9.50;;;;;23.37;56.91;99351.35;110269;1249;23036;-39
2023/08/06 05:22:36;;;;;;;;;13.00;10.00;;;;;23.36;57.23;99340.13;110212;1249;19763;-40
2023/08/06 05:25:02;;;;;;;;;7.00;7.00;;;;;23.36;56.98;99336.08;110279;1257;19816;-40
2023/08/06 05:27:28;;;;;;;;;9.00;9.00;;;;;23.35;57.18;99327.11;110267;1265;21682;-40
2023/08/06 05:29:54;;;;;;;;;9.00;9.00;;;;;23.37;57.10;99328.69;110269;1251;22947;-40
2023/08/06 05:32:20;;;;;;;;;11.50;10.00;;;;;23.35;57.15;99317.05;110306;1251;19775;-40
2023/08/06 05:34:46;;;;;;;;;9.00;9.00;;;;;23.34;57.34;99316.86;110258;1265;19806;-40
2023/08/06 05:37:12;;;;;;;;;9.00;9.00;;;;;23.34;57.32;99309.81;110262;1265;18528;-40
2023/08/06 05:39:38;;;;;;;;;11.00;11.00;;;;;23.34;57.41;99314.41;110276;1250;19706;-41
2023/08/06 05:42:03;;;;;;;;;10.00;10.00;;;;;23.34;57.50;99324.96;110296;1251;20707;-40
2023/08/06 05:44:29;;;;;;;;;11.00;11.00;;;;;23.33;57.71;99326.17;110200;1251;19775;-39
2023/08/06 05:46:55;;;;;;;;;;;;;;;23.35;57.54;99322.06;110263;1249;22357;-39
2023/08/06 05:49:21;;;;;;;;;11.00;10.50;;;;;23.34;57.74;99317.95;110261;1249;23543;-39
2023/08/06 05:51:48;;;;;;;;;10.00;10.00;;;;;23.31;57.91;99312.80;110259;1265;20907;-40
2023/08/06 05:54:14;;;;;;;;;10.00;9.00;;;;;23.31;57.82;99311.59;110246;1257;20334;-42
2023/08/06 05:56:40;;;;;;;;;12.00;12.00;;;;;23.33;57.77;99312.36;110248;1265;23016;-41
2023/08/06 05:59:06;;;;;;;;;10.00;10.00;;;;;23.34;58.00;99307.95;110258;1251;19728;-41
2023/08/06 06:01:32;;;;;;;;;11.00;10.00;;;;;23.38;57.91;99303.99;110293;1251;20387;-41
2023/08/06 06:03:57;;;;;;;;;13.00;10.00;;;;;23.34;58.10;99310.23;110291;1251;22149;-42
2023/08/06 06:06:23;;;;;;;;;9.00;9.00;;;;;23.35;57.86;99307.85;110201;1265;23125;-41
2023/08/06 06:08:49;;;;;;;;;13.00;10.00;;;;;23.38;57.76;99296.18;110242;1251;21106;-40
2023/08/06 06:11:15;;;;;;;;;9.00;9.00;;;;;23.37;57.89;99294.73;110305;1265;19106;-40
2023/08/06 06:13:42;;;;;;;;;7.00;7.00;;;;;23.35;58.14;99293.65;110259;1250;20064;-40
2023/08/06 06:16:07;;;;;;;;;11.00;9.00;;;;;23.35;57.89;99288.50;110290;1251;19870;-40
2023/08/06 06:18:33;;;;;;;;;11.00;10.00;;;;;23.36;58.18;99277.83;110207;1265;20461;-40
2023/08/06 06:21:00;;;;;;;;;11.00;11.00;;;;;23.39;58.07;99274.92;110277;1250;18549;-41
2023/08/06 06:23:25;;;;;;;;;14.00;10.00;;;;;23.39;58.11;99267.77;110296;1265;18415;-40
2023/08/06 06:25:51;;;;;;;;;10.00;9.50;;;;;23.39;58.20;99263.59;110269;1265;19197;-40
2023/08/06 06:28:17;;;;;;;;;9.50;9.00;;;;;23.39;57.97;99264.68;110283;1250;19807;-40
2023/08/06 06:30:43;;;;;;;;;9.00;9.00;;;;;23.41;58.16;99265.03;110333;1250;19908;-40
2023/08/06 06:33:09;;;;;;;;;9.50;9.50;;;;;23.44;58.05;99268.50;110314;1251;20527;-40
2023/08/06 06:35:35;;;;;;;;;7.00;7.00;;;;;23.43;58.02;99263.23;110378;1257;19420;-39
2023/08/06 06:38:02;;;;;;;;;9.50;9.50;;;;;23.43;58.37;99255.52;110273;1249;19885;-40
2023/08/06 06:40:28;;;;;;;;;9.00;9.00;;;;;23.43;58.23;99251.20;110226;1265;22709;-40
2023/08/06 06:42:54;;;;;;;;;10.00;9.00;;;;;23.43;58.06;99251.84;110252;1251;22122;-41
2023/08/06 06:45:20;;;;;;;;;7.00;7.00;;;;;23.43;58.25;99246.54;110272;1265;19882;-40
2023/08/06 06:47:46;;;;;;;;;10.00;9.00;;;;;23.44;58.08;99245.55;110293;1251;20452;-41
2023/08/06 06:50:12;;;;;;;;;10.00;7.00;;;;;23.45;58.29;99231.11;110274;1257;19341;-39
2023/08/06 06:52:38;;;;;;;;;6.50;6.50;;;;;23.46;58.13;99228.46;110309;1251;19856;-40
2023/08/06 06:55:04;;;;;;;;;6.00;6.00;;;;;23.46;58.12;99227.70;110284;1265;22507;-40
2023/08/06 06:57:30;;;;;;;;;7.00;7.00;;;;;23.45;58.14;99223.27;110289;1250;19530;-40
2023/08/06 06:59:56;;;;;;;;;7.00;7.00;;;;;23.45;58.36;99225.33;110271;1265;19952;-40
2023/08/06 07:02:22;;;;;;;;;7.00;7.00;;;;;23.46;58.48;99221.10;110277;1251;20772;-40
2023/08/06 07:04:48;;;;;;;;;7.00;7.00;;;;;23.45;58.33;99212.74;110317;1265;18442;-40
2023/08/06 07:07:14;;;;;;;;;6.00;6.00;;;;;23.44;58.44;99218.09;110237;1265;19732;-40
2023/08/06 07:09:40;;;;;;;;;6.00;6.00;;;;;23.43;58.65;99208.96;110259;1251;22709;-41
2023/08/06 07:12:06;;;;;;;;;6.00;6.00;;;;;23.43;58.46;99214.45;110256;1250;20884;-40
2023/08/06 07:14:32;;;;;;;;;9.00;9.00;;;;;23.46;58.62;99212.84;110264;1251;19669;-41
2023/08/06 07:16:58;;;;;;;;;7.00;7.00;;;;;23.44;58.54;99215.52;110290;1265;22303;-41
2023/08/06 07:19:24;;;;;;;;;8.00;7.00;;;;;23.43;58.59;99209.22;110265;1265;19589;-39
2023/08/06 07:21:50;;;;;;;;;6.00;6.00;;;;;23.44;58.50;99210.25;110261;1252;18310;-40
2023/08/06 07:24:16;;;;;;;;;9.00;7.00;;;;;23.45;58.65;99199.79;110096;1265;21061;-40
2023/08/06 07:26:44;;;;;;;;;6.00;6.00;;;;;23.44;58.74;99188.95;110203;1265;18358;-41
2023/08/06 07:29:10;;;;;;;;;7.00;7.00;;;;;23.43;58.80;99187.25;110312;1265;19872;-40
2023/08/06 07:31:36;;;;;;;;;6.00;6.00;;;;;23.44;58.78;99171.37;110136;1265;173675;-41
2023/08/06 07:34:02;;;;;;;;;6.00;6.00;;;;;23.44;58.91;99161.21;110272;1265;18260;-41
2023/08/06 07:36:28;;;;;;;;;7.00;6.00;;;;;23.44;58.82;99163.05;110210;1265;20011;-42
2023/08/06 07:38:56;;;;;;;;;6.00;6.00;;;;;23.43;58.96;99161.66;110204;1265;19510;-40
2023/08/06 07:41:24;;;;;;;;;6.00;6.00;;;;;23.42;58.99;99165.11;110280;1251;18350;-40
2023/08/06 07:43:50;;;;;;;;;7.67;7.00;;;;;23.43;58.70;99172.92;110275;1265;19982;-41
2023/08/06 07:46:16;;;;;;;;;6.00;5.00;;;;;23.42;58.96;99173.09;110266;1265;20695;-40
2023/08/06 07:48:42;;;;;;;;;6.00;6.00;;;;;23.44;58.97;99172.15;110333;1265;18363;-40
2023/08/06 07:51:11;;;;;;;;;9.00;7.00;;;;;23.44;59.00;99164.81;110310;1265;21180;-40
2023/08/06 07:53:37;;;;;;;;;10.00;10.00;;;;;23.44;58.96;99157.33;110305;1250;22732;-40
2023/08/06 07:56:03;;;;;;;;;6.00;6.00;;;;;23.44;58.98;99152.41;110269;1265;18453;-40
2023/08/06 07:58:29;;;;;;;;;5.50;5.50;;;;;23.44;59.19;99150.23;110295;1265;19936;-41
2023/08/06 08:00:55;;;;;;;;;9.00;9.00;;;;;23.44;59.25;99148.65;110290;1251;20442;-40
2023/08/06 08:03:21;;;;;;;;;6.00;6.00;;;;;23.43;59.22;99137.55;110343;1265;20817;-40
2023/08/06 08:05:47;;;;;;;;;9.00;7.00;;;;;23.46;59.16;99138.67;110300;1265;18676;-40
2023/08/06 08:08:13;;;;;;;;;6.00;6.00;;;;;23.46;59.26;99138.35;110274;1257;20863;-40
2023/08/06 08:10:39;;;;;;;;;7.00;7.00;;;;;23.48;59.11;99131.72;110284;1265;18216;-40
2023/08/06 08:13:05;;;;;;;;;8.00;8.00;;;;;23.49;59.01;99129.30;110109;1266;21230;-39
2023/08/06 08:15:32;;;;;;;;;10.00;9.00;;;;;23.46;59.46;99125.61;110318;1251;20764;-38
2023/08/06 08:17:58;;;;;;;;;10.00;9.00;;;;;23.43;59.71;99118.65;110303;1265;18720;-39
2023/08/06 08:20:24;;;;;;;;;11.00;11.00;;;;;23.47;59.80;99120.60;110320;1265;21504;-39
2023/08/06 08:22:50;;;;;;;;;9.00;9.00;;;;;23.43;60.23;99115.12;110316;1265;19540;-38
2023/08/06 08:25:16;;;;;;;;;11.00;10.50;;;;;23.42;60.30;99112.13;110286;1265;19952;-39
2023/08/06 08:27:42;;;;;;;;;9.00;9.00;;;;;23.42;60.55;99108.68;110265;1265;21497;-38
2023/08/06 08:30:08;;;;;;;;;10.00;10.00;;;;;23.41;60.84;99100.27;110274;1265;19307;-40
2023/08/06 08:32:34;;;;;;;;;13.00;11.00;;;;;23.35;61.26;99089.02;110179;1265;19230;-40
2023/08/06 08:35:00;;;;;;;;;14.00;11.00;;;;;23.34;61.29;99085.95;110338;1265;20197;-40
2023/08/06 08:37:26;;;;;;;;;11.00;11.00;;;;;23.31;61.76;99074.09;110330;1265;20929;-40
2023/08/06 08:39:52;;;;;;;;;10.00;9.00;;;;;23.30;62.00;99061.33;110270;1250;20131;-38
2023/08/06 08:42:18;;;;;;;;;11.00;10.00;;;;;23.28;62.07;99065.70;110267;1265;19332;-40
2023/08/06 08:44:44;;;;;;;;;13.00;10.00;;;;;23.32;61.99;99069.84;110286;1265;19123;-40
2023/08/06 08:47:10;;;;;;;;;7.00;6.00;;;;;23.30;62.02;99067.89;110271;1265;18794;-40
2023/08/06 08:49:36;;;;;;;;;12.50;11.50;;;;;23.34;61.77;99071.56;110295;1265;19750;-40
2023/08/06 08:52:03;;;;;;;;;10.00;9.50;;;;;23.37;61.85;99065.61;110285;1265;21086;-40
2023/08/06 08:54:33;;;;;;;;;10.00;10.00;;;;;23.41;61.58;99068.96;110291;1265;19855;-39
2023/08/06 08:57:00;;;;;;;;;13.00;13.00;;;;;23.39;61.84;99062.96;110128;1266;19334;-39
2023/08/06 08:59:29;;;;;;;;;10.00;10.00;;;;;23.41;61.58;99060.55;110279;1265;19371;-40
2023/08/06 09:01:55;;;;;;;;;9.00;9.00;;;;;23.42;61.65;99061.30;110251;1251;20407;-40
2023/08/06 09:04:21;;;;;;;;;9.00;9.00;;;;;23.44;61.37;99060.69;110229;1265;18373;-41
2023/08/06 09:06:47;;;;;;;;;12.00;11.00;;;;;23.44;61.46;99059.42;110283;1257;22014;-40
2023/08/06 09:09:13;;;;;;;;;10.00;10.00;;;;;23.44;61.50;99056.15;110296;1265;19228;-40
2023/08/06 09:11:40;;;;;;;;;13.00;11.00;;;;;23.44;61.60;99051.84;110255;1250;19972;-40
2023/08/06 09:14:08;;;;;;;;;11.00;10.50;;;;;23.44;61.58;99040.37;110250;1250;21955;-40
2023/08/06 09:16:34;;;;;;;;;11.33;10.33;;;;;23.46;61.58;99030.52;110270;1251;21507;-40
2023/08/06 09:19:00;;;;;;;;;;;;;;;23.44;61.56;99022.62;110300;1251;19846;-40
2023/08/06 09:21:25;;;;;;;;;13.00;13.00;;;;;23.46;61.51;99015.31;110315;1265;19381;-40
2023/08/06 09:23:51;;;;;;;;;11.00;10.00;;;;;23.48;61.57;99020.83;110253;1265;19128;-40
2023/08/06 09:26:17;;;;;;;;;10.50;9.50;;;;;23.47;61.52;99017.91;110180;1265;18712;-39
2023/08/06 09:28:43;;;;;;;;;9.00;9.00;;;;;23.48;61.66;99018.58;110212;1265;19297;-38
2023/08/06 09:31:10;;;;;;;;;13.00;11.00;;;;;23.48;61.54;99019.92;110202;1265;20932;-38
2023/08/06 09:33:36;;;;;;;;;22.00;17.50;;;;;23.50;61.67;99024.38;110230;1250;21768;-39
2023/08/06 09:36:02;;;;;;;;;14.00;14.00;;;;;23.51;61.45;99014.35;110265;1250;19362;-39
2023/08/06 09:38:28;;;;;;;;;12.50;12.00;;;;;23.52;61.51;99005.02;110239;1265;21681;-40
2023/08/06 09:40:54;;;;;;;;;21.00;17.50;;;;;23.53;61.61;99002.33;110235;1265;20177;-40
2023/08/06 09:43:20;;;;;;;;;16.50;16.00;;;;;23.52;61.88;99001.42;110313;1251;20457;-40
2023/08/06 09:45:48;;;;;;;;;13.50;13.00;;;;;23.52;61.69;98992.65;110319;1265;18688;-40
2023/08/06 09:48:14;;;;;;;;;17.50;14.50;;;;;23.53;61.64;98978.17;110349;1265;21944;-42
2023/08/06 09:50:41;;;;;;;;;15.00;13.00;;;;;23.52;61.99;98974.54;110270;1265;20705;-40
2023/08/06 09:53:08;;;;;;;;;12.00;11.00;;;;;23.52;62.07;98973.05;110308;1249;19978;-39
2023/08/06 09:55:34;;;;;;;;;14.00;13.00;;;;;23.52;62.07;98971.69;110306;1250;21454;-39
2023/08/06 09:57:59;;;;;;;;;10.00;10.00;;;;;23.54;61.87;98970.52;110314;1265;21536;-40
2023/08/06 10:00:26;;;;;;;;;14.00;11.00;;;;;23.55;61.89;98959.73;110292;1257;18642;-40
2023/08/06 10:02:54;;;;;;;;;13.00;13.00;;;;;23.55;62.07;98959.41;110160;1265;18456;-40
2023/08/06 10:05:20;;;;;;;;;13.00;13.00;;;;;23.55;62.08;98955.70;110205;1265;20694;-40
2023/08/06 10:07:46;;;;;;;;;13.00;13.00;;;;;23.55;62.23;98954.60;110272;1251;20131;-40
2023/08/06 10:10:12;;;;;;;;;14.00;13.00;;;;;23.53;62.48;98953.29;110224;1265;19104;-40
2023/08/06 10:12:38;;;;;;;;;14.00;13.00;;;;;23.53;62.83;98954.87;110329;1265;19549;-40
2023/08/06 10:15:04;;;;;;;;;14.00;13.00;;;;;23.52;62.98;98959.88;110319;1251;19912;-40
2023/08/06 10:17:30;;;;;;;;;14.00;13.00;;;;;23.53;62.69;98954.14;110345;1251;19884;-39
2023/08/06 10:19:56;;;;;;;;;10.00;10.00;;;;;23.54;62.57;98952.23;110311;1265;20421;-40
2023/08/06 10:22:23;;;;;;;;;14.00;13.00;;;;;23.55;62.81;98952.20;110328;1265;18591;-39
2023/08/06 10:24:49;;;;;;;;;;;;;;;23.55;62.69;98943.71;110355;1265;21354;-40
2023/08/06 10:27:15;;;;;;;;;11.67;11.67;;;;;23.56;62.68;98938.05;110303;1265;20808;-40
2023/08/06 10:29:41;;;;;;;;;15.00;14.00;;;;;23.56;62.77;98930.23;110346;1265;19025;-40
2023/08/06 10:32:07;;;;;;;;;14.00;13.00;;;;;23.57;62.68;98925.19;110346;1251;19918;-40
2023/08/06 10:34:33;;;;;;;;;13.00;11.00;;;;;23.57;62.88;98923.95;110346;1265;21038;-40
2023/08/06 10:37:00;;;;;;;;;14.00;14.00;;;;;23.57;63.12;98920.67;110320;1257;20122;-40
2023/08/06 10:39:26;;;;;;;;;13.50;13.00;;;;;23.59;62.80;98919.58;110119;1266;20008;-39
2023/08/06 10:41:52;;;;;;;;;13.00;11.00;;;;;23.58;63.15;98913.52;110113;1266;20209;-40
2023/08/06 10:44:18;;;;;;;;;17.00;15.00;;;;;23.60;62.97;98910.08;110302;1251;22157;-40
2023/08/06 10:46:49;;;;;;;;;16.00;14.00;;;;;23.62;62.93;98905.76;110308;1257;18701;-40
2023/08/06 10:49:15;;;;;;;;;17.00;14.50;;;;;23.61;63.03;98896.70;109607;1253;20797;-39
2023/08/06 10:51:41;;;;;;;;;15.00;14.00;;;;;23.62;62.91;98894.60;110291;1265;19915;-40
2023/08/06 10:54:07;;;;;;;;;21.50;14.50;;;;;23.63;63.12;98887.94;110277;1251;19737;-41
2023/08/06 10:56:33;;;;;;;;;16.50;15.00;;;;;23.63;62.82;98889.89;110252;1249;20810;-40
2023/08/06 10:58:59;;;;;;;;;18.00;18.00;;;;;23.63;63.00;98882.30;110236;1251;19739;-40
2023/08/06 11:01:25;;;;;;;;;17.00;17.00;;;;;23.64;63.13;98880.17;110323;1250;20199;-38
2023/08/06 11:03:53;;;;;;;;;16.00;14.50;;;;;23.66;62.94;98875.02;110314;1265;20577;-38
2023/08/06 11:06:19;;;;;;;;;15.00;15.00;;;;;23.66;63.21;98868.45;110307;1265;19483;-40
2023/08/06 11:08:45;;;;;;;;;18.00;18.00;;;;;23.68;63.07;98866.00;110334;1265;19600;-39
2023/08/06 11:11:12;;;;;;;;;14.50;14.50;;;;;23.68;62.81;98861.63;110289;1265;20559;-40
2023/08/06 11:13:38;;;;;;;;;26.50;22.00;;;;;23.69;62.98;98858.08;110243;1251;20280;-38